sensor_id;sensor_type;location;lat;lon;timestamp;temperature;humidity
19813;DHT22;10066;48.108;11.448;2024-02-04T00:02:18;6.90;99.90
19813;DHT22;10066;48.108;11.448;2024-02-04T00:04:47;6.90;99.90
19813;DHT22;10066;48.108;11.448;2024-02-04T00:07:14;6.90;99.90
19813;DHT22;10066;48.108;11.448;2024-02-04T00:09:41;6.90;99.90
19813;DHT22;10066;48.108;11.448;2024-02-04T00:12:09;6.80;99.90
19813;DHT22;10066;48.108;11.448;2024-02-04T00:14:37;6.80;99.90
19813;DHT22;10066;48.108;11.448;2024-02-04T00:17:04;6.80;99.90
19813;DHT22;10066;48.108;11.448;2024-02-04T00:19:31;6.80;99.90
19813;DHT22;10066;48.108;11.448;2024-02-04T00:21:59;6.80;99.90
19813;DHT22;10066;48.108;11.448;2024-02-04T00:24:26;6.70;99.90
19813;DHT22;10066;48.108;11.448;2024-02-04T00:26:53;6.60;99.90
19813;DHT22;10066;48.108;11.448;2024-02-04T00:29:20;6.60;99.90
19813;DHT22;10066;48.108;11.448;2024-02-04T00:31:47;6.60;99.90
19813;DHT22;10066;48.108;11.448;2024-02-04T00:34:15;6.60;99.90
19813;DHT22;10066;48.108;11.448;2024-02-04T00:36:42;6.60;99.90
19813;DHT22;10066;48.108;11.448;2024-02-04T00:39:10;6.60;99.90
19813;DHT22;10066;48.108;11.448;2024-02-04T00:41:37;6.60;99.90
19813;DHT22;10066;48.108;11.448;2024-02-04T00:44:04;6.60;99.90
19813;DHT22;10066;48.108;11.448;2024-02-04T00:46:31;6.60;99.90
19813;DHT22;10066;48.108;11.448;2024-02-04T00:48:58;6.60;99.90
19813;DHT22;10066;48.108;11.448;2024-02-04T00:51:25;6.60;99.90
19813;DHT22;10066;48.108;11.448;2024-02-04T00:53:52;6.60;99.90
19813;DHT22;10066;48.108;11.448;2024-02-04T00:56:21;6.60;99.90
19813;DHT22;10066;48.108;11.448;2024-02-04T00:58:48;6.60;99.90
19813;DHT22;10066;48.108;11.448;2024-02-04T01:01:15;6.60;99.90
19813;DHT22;10066;48.108;11.448;2024-02-04T01:03:42;6.60;99.90
19813;DHT22;10066;48.108;11.448;2024-02-04T01:06:09;6.60;99.90
19813;DHT22;10066;48.108;11.448;2024-02-04T01:08:36;6.50;99.90
19813;DHT22;10066;48.108;11.448;2024-02-04T01:11:04;6.50;99.90
19813;DHT22;10066;48.108;11.448;2024-02-04T01:13:33;6.50;99.90
19813;DHT22;10066;48.108;11.448;2024-02-04T01:16:00;6.50;99.90
19813;DHT22;10066;48.108;11.448;2024-02-04T01:18:27;6.40;99.90
19813;DHT22;10066;48.108;11.448;2024-02-04T01:20:54;6.40;99.90
19813;DHT22;10066;48.108;11.448;2024-02-04T01:23:21;6.40;99.90
19813;DHT22;10066;48.108;11.448;2024-02-04T01:25:48;6.30;99.90
19813;DHT22;10066;48.108;11.448;2024-02-04T01:28:15;6.30;99.90
19813;DHT22;10066;48.108;11.448;2024-02-04T01:30:44;6.20;99.90
19813;DHT22;10066;48.108;11.448;2024-02-04T01:33:11;6.20;99.90
19813;DHT22;10066;48.108;11.448;2024-02-04T01:35:38;6.10;99.90
19813;DHT22;10066;48.108;11.448;2024-02-04T01:38:05;6.00;99.90
19813;DHT22;10066;48.108;11.448;2024-02-04T01:40:32;5.90;99.90
19813;DHT22;10066;48.108;11.448;2024-02-04T01:42:59;5.80;99.90
19813;DHT22;10066;48.108;11.448;2024-02-04T01:45:27;5.80;99.90
19813;DHT22;10066;48.108;11.448;2024-02-04T01:47:56;5.70;99.90
19813;DHT22;10066;48.108;11.448;2024-02-04T01:50:23;5.70;99.90
19813;DHT22;10066;48.108;11.448;2024-02-04T01:52:52;5.70;99.90
19813;DHT22;10066;48.108;11.448;2024-02-04T01:55:19;5.70;99.90
19813;DHT22;10066;48.108;11.448;2024-02-04T01:57:48;5.70;99.90
19813;DHT22;10066;48.108;11.448;2024-02-04T02:00:16;5.80;99.90
19813;DHT22;10066;48.108;11.448;2024-02-04T02:02:46;5.80;99.90
19813;DHT22;10066;48.108;11.448;2024-02-04T02:05:14;5.90;99.90
19813;DHT22;10066;48.108;11.448;2024-02-04T02:07:42;6.00;99.90
19813;DHT22;10066;48.108;11.448;2024-02-04T02:10:11;6.10;99.90
19813;DHT22;10066;48.108;11.448;2024-02-04T02:12:43;6.10;99.90
19813;DHT22;10066;48.108;11.448;2024-02-04T02:15:14;6.20;99.90
19813;DHT22;10066;48.108;11.448;2024-02-04T02:17:44;6.20;99.90
19813;DHT22;10066;48.108;11.448;2024-02-04T02:20:20;6.30;99.90
19813;DHT22;10066;48.108;11.448;2024-02-04T02:22:49;6.30;99.90
19813;DHT22;10066;48.108;11.448;2024-02-04T02:25:20;6.30;99.90
19813;DHT22;10066;48.108;11.448;2024-02-04T02:27:48;6.30;99.90
19813;DHT22;10066;48.108;11.448;2024-02-04T02:30:16;6.30;99.90
19813;DHT22;10066;48.108;11.448;2024-02-04T02:32:44;6.30;99.90
19813;DHT22;10066;48.108;11.448;2024-02-04T02:35:13;6.30;99.90
19813;DHT22;10066;48.108;11.448;2024-02-04T02:37:44;6.30;99.90
19813;DHT22;10066;48.108;11.448;2024-02-04T02:40:19;6.30;99.90
19813;DHT22;10066;48.108;11.448;2024-02-04T02:42:49;6.30;99.90
19813;DHT22;10066;48.108;11.448;2024-02-04T02:45:20;6.40;99.90
19813;DHT22;10066;48.108;11.448;2024-02-04T02:47:48;6.40;99.90
19813;DHT22;10066;48.108;11.448;2024-02-04T02:50:16;6.50;99.90
19813;DHT22;10066;48.108;11.448;2024-02-04T02:52:43;6.50;99.90
19813;DHT22;10066;48.108;11.448;2024-02-04T02:55:10;6.50;99.90
19813;DHT22;10066;48.108;11.448;2024-02-04T02:57:38;6.50;99.90
19813;DHT22;10066;48.108;11.448;2024-02-04T03:00:07;6.50;99.90
19813;DHT22;10066;48.108;11.448;2024-02-04T03:02:34;6.50;99.90
19813;DHT22;10066;48.108;11.448;2024-02-04T03:05:01;6.50;99.90
19813;DHT22;10066;48.108;11.448;2024-02-04T03:07:28;6.50;99.90
19813;DHT22;10066;48.108;11.448;2024-02-04T03:09:55;6.50;99.90
19813;DHT22;10066;48.108;11.448;2024-02-04T03:12:23;6.40;99.90
19813;DHT22;10066;48.108;11.448;2024-02-04T03:14:51;6.50;99.90
19813;DHT22;10066;48.108;11.448;2024-02-04T03:17:18;6.40;99.90
19813;DHT22;10066;48.108;11.448;2024-02-04T03:19:46;6.50;99.90
19813;DHT22;10066;48.108;11.448;2024-02-04T03:22:14;6.50;99.90
19813;DHT22;10066;48.108;11.448;2024-02-04T03:24:41;6.50;99.90
19813;DHT22;10066;48.108;11.448;2024-02-04T03:27:09;6.60;99.90
19813;DHT22;10066;48.108;11.448;2024-02-04T03:29:36;6.60;99.90
19813;DHT22;10066;48.108;11.448;2024-02-04T03:32:05;6.60;99.90
19813;DHT22;10066;48.108;11.448;2024-02-04T03:34:32;6.60;99.90
19813;DHT22;10066;48.108;11.448;2024-02-04T03:37:00;6.60;99.90
19813;DHT22;10066;48.108;11.448;2024-02-04T03:39:27;6.60;99.90
19813;DHT22;10066;48.108;11.448;2024-02-04T03:41:54;6.60;99.90
19813;DHT22;10066;48.108;11.448;2024-02-04T03:44:21;6.70;99.90
19813;DHT22;10066;48.108;11.448;2024-02-04T03:46:48;6.70;99.90
19813;DHT22;10066;48.108;11.448;2024-02-04T03:49:18;6.70;99.90
19813;DHT22;10066;48.108;11.448;2024-02-04T03:51:45;6.70;99.90
19813;DHT22;10066;48.108;11.448;2024-02-04T03:54:13;6.70;99.90
19813;DHT22;10066;48.108;11.448;2024-02-04T03:56:40;6.70;99.90
19813;DHT22;10066;48.108;11.448;2024-02-04T03:59:08;6.70;99.90
19813;DHT22;10066;48.108;11.448;2024-02-04T04:01:36;6.70;99.90
19813;DHT22;10066;48.108;11.448;2024-02-04T04:04:03;6.70;99.90
19813;DHT22;10066;48.108;11.448;2024-02-04T04:06:32;6.70;99.90
19813;DHT22;10066;48.108;11.448;2024-02-04T04:08:59;6.80;99.90
19813;DHT22;10066;48.108;11.448;2024-02-04T04:11:26;6.80;99.90
19813;DHT22;10066;48.108;11.448;2024-02-04T04:13:53;6.80;99.90
19813;DHT22;10066;48.108;11.448;2024-02-04T04:16:21;6.80;99.90
19813;DHT22;10066;48.108;11.448;2024-02-04T04:18:48;6.80;99.90
19813;DHT22;10066;48.108;11.448;2024-02-04T04:21:16;6.80;99.90
19813;DHT22;10066;48.108;11.448;2024-02-04T04:23:45;6.90;99.90
19813;DHT22;10066;48.108;11.448;2024-02-04T04:26:12;6.90;99.90
19813;DHT22;10066;48.108;11.448;2024-02-04T04:28:39;6.90;99.90
19813;DHT22;10066;48.108;11.448;2024-02-04T04:31:06;6.90;99.90
19813;DHT22;10066;48.108;11.448;2024-02-04T04:33:33;7.00;99.90
19813;DHT22;10066;48.108;11.448;2024-02-04T04:36:00;7.00;99.90
19813;DHT22;10066;48.108;11.448;2024-02-04T04:38:27;7.00;99.90
19813;DHT22;10066;48.108;11.448;2024-02-04T04:40:55;7.00;99.90
19813;DHT22;10066;48.108;11.448;2024-02-04T04:43:22;7.00;99.90
19813;DHT22;10066;48.108;11.448;2024-02-04T04:45:52;6.90;99.90
19813;DHT22;10066;48.108;11.448;2024-02-04T04:48:19;6.90;99.90
19813;DHT22;10066;48.108;11.448;2024-02-04T04:50:46;6.90;99.90
19813;DHT22;10066;48.108;11.448;2024-02-04T04:53:13;6.80;99.90
19813;DHT22;10066;48.108;11.448;2024-02-04T04:55:40;6.80;99.90
19813;DHT22;10066;48.108;11.448;2024-02-04T04:58:09;6.90;99.90
19813;DHT22;10066;48.108;11.448;2024-02-04T05:00:36;6.80;99.90
19813;DHT22;10066;48.108;11.448;2024-02-04T05:03:04;6.80;99.90
19813;DHT22;10066;48.108;11.448;2024-02-04T05:05:31;6.80;99.90
19813;DHT22;10066;48.108;11.448;2024-02-04T05:07:58;6.90;99.90
19813;DHT22;10066;48.108;11.448;2024-02-04T05:10:25;6.90;99.90
19813;DHT22;10066;48.108;11.448;2024-02-04T05:12:52;6.90;99.90
19813;DHT22;10066;48.108;11.448;2024-02-04T05:15:21;6.90;99.90
19813;DHT22;10066;48.108;11.448;2024-02-04T05:17:48;6.90;99.90
19813;DHT22;10066;48.108;11.448;2024-02-04T05:20:15;7.00;99.90
19813;DHT22;10066;48.108;11.448;2024-02-04T05:22:42;7.00;99.90
19813;DHT22;10066;48.108;11.448;2024-02-04T05:25:09;7.00;99.90
19813;DHT22;10066;48.108;11.448;2024-02-04T05:27:36;6.90;99.90
19813;DHT22;10066;48.108;11.448;2024-02-04T05:30:04;7.00;99.90
19813;DHT22;10066;48.108;11.448;2024-02-04T05:32:31;7.00;99.90
19813;DHT22;10066;48.108;11.448;2024-02-04T05:34:58;7.00;99.90
19813;DHT22;10066;48.108;11.448;2024-02-04T05:37:25;7.00;99.90
19813;DHT22;10066;48.108;11.448;2024-02-04T05:39:53;7.00;99.90
19813;DHT22;10066;48.108;11.448;2024-02-04T05:42:19;7.10;99.90
19813;DHT22;10066;48.108;11.448;2024-02-04T05:44:46;7.10;99.90
19813;DHT22;10066;48.108;11.448;2024-02-04T05:47:13;7.10;99.90
19813;DHT22;10066;48.108;11.448;2024-02-04T05:49:42;7.10;99.90
19813;DHT22;10066;48.108;11.448;2024-02-04T05:52:11;7.10;99.90
19813;DHT22;10066;48.108;11.448;2024-02-04T05:54:38;7.10;99.90
19813;DHT22;10066;48.108;11.448;2024-02-04T05:57:06;7.10;99.90
19813;DHT22;10066;48.108;11.448;2024-02-04T05:59:33;7.10;99.90
19813;DHT22;10066;48.108;11.448;2024-02-04T06:02:00;7.10;99.90
19813;DHT22;10066;48.108;11.448;2024-02-04T06:04:27;7.10;99.90
19813;DHT22;10066;48.108;11.448;2024-02-04T06:06:55;7.10;99.90
19813;DHT22;10066;48.108;11.448;2024-02-04T06:09:22;7.00;99.90
19813;DHT22;10066;48.108;11.448;2024-02-04T06:11:49;7.10;99.90
19813;DHT22;10066;48.108;11.448;2024-02-04T06:14:16;7.10;99.90
19813;DHT22;10066;48.108;11.448;2024-02-04T06:16:43;7.10;99.90
19813;DHT22;10066;48.108;11.448;2024-02-04T06:19:10;7.20;99.90
19813;DHT22;10066;48.108;11.448;2024-02-04T06:21:38;7.20;99.90
19813;DHT22;10066;48.108;11.448;2024-02-04T06:24:08;7.20;99.90
19813;DHT22;10066;48.108;11.448;2024-02-04T06:26:37;7.20;99.90
19813;DHT22;10066;48.108;11.448;2024-02-04T06:29:05;7.20;99.90
19813;DHT22;10066;48.108;11.448;2024-02-04T06:31:32;7.20;99.90
19813;DHT22;10066;48.108;11.448;2024-02-04T06:33:59;7.30;99.90
19813;DHT22;10066;48.108;11.448;2024-02-04T06:36:26;7.30;99.90
19813;DHT22;10066;48.108;11.448;2024-02-04T06:38:53;7.30;99.90
19813;DHT22;10066;48.108;11.448;2024-02-04T06:41:22;7.40;99.90
19813;DHT22;10066;48.108;11.448;2024-02-04T06:43:49;7.40;99.90
19813;DHT22;10066;48.108;11.448;2024-02-04T06:46:24;7.40;99.90
19813;DHT22;10066;48.108;11.448;2024-02-04T06:48:51;7.50;99.90
19813;DHT22;10066;48.108;11.448;2024-02-04T06:51:19;7.50;99.90
19813;DHT22;10066;48.108;11.448;2024-02-04T06:53:46;7.50;99.90
19813;DHT22;10066;48.108;11.448;2024-02-04T06:56:13;7.50;99.90
19813;DHT22;10066;48.108;11.448;2024-02-04T06:58:42;7.50;99.90
19813;DHT22;10066;48.108;11.448;2024-02-04T07:01:09;7.50;99.90
19813;DHT22;10066;48.108;11.448;2024-02-04T07:03:36;7.50;99.90
19813;DHT22;10066;48.108;11.448;2024-02-04T07:06:04;7.50;99.90
19813;DHT22;10066;48.108;11.448;2024-02-04T07:08:31;7.50;99.90
19813;DHT22;10066;48.108;11.448;2024-02-04T07:10:58;7.50;99.90
19813;DHT22;10066;48.108;11.448;2024-02-04T07:13:25;7.40;99.90
19813;DHT22;10066;48.108;11.448;2024-02-04T07:15:54;7.50;99.90
19813;DHT22;10066;48.108;11.448;2024-02-04T07:18:21;7.50;99.90
19813;DHT22;10066;48.108;11.448;2024-02-04T07:20:48;7.60;99.90
19813;DHT22;10066;48.108;11.448;2024-02-04T07:23:15;7.60;99.90
19813;DHT22;10066;48.108;11.448;2024-02-04T07:25:42;7.60;99.90
19813;DHT22;10066;48.108;11.448;2024-02-04T07:28:09;7.60;99.90
19813;DHT22;10066;48.108;11.448;2024-02-04T07:30:36;7.60;99.90
19813;DHT22;10066;48.108;11.448;2024-02-04T07:33:05;7.70;99.90
19813;DHT22;10066;48.108;11.448;2024-02-04T07:35:32;7.70;99.90
19813;DHT22;10066;48.108;11.448;2024-02-04T07:37:59;7.70;99.90
19813;DHT22;10066;48.108;11.448;2024-02-04T07:40:26;7.70;99.90
19813;DHT22;10066;48.108;11.448;2024-02-04T07:42:54;7.70;99.90
19813;DHT22;10066;48.108;11.448;2024-02-04T07:45:21;7.80;99.90
19813;DHT22;10066;48.108;11.448;2024-02-04T07:47:48;7.80;99.90
19813;DHT22;10066;48.108;11.448;2024-02-04T07:50:16;7.80;99.90
19813;DHT22;10066;48.108;11.448;2024-02-04T07:52:43;7.80;99.90
19813;DHT22;10066;48.108;11.448;2024-02-04T07:55:11;7.80;99.90
19813;DHT22;10066;48.108;11.448;2024-02-04T07:57:38;7.80;99.90
19813;DHT22;10066;48.108;11.448;2024-02-04T08:00:06;7.80;99.90
19813;DHT22;10066;48.108;11.448;2024-02-04T08:02:35;7.80;99.90
19813;DHT22;10066;48.108;11.448;2024-02-04T08:05:03;7.80;99.90
19813;DHT22;10066;48.108;11.448;2024-02-04T08:07:32;7.80;99.90
19813;DHT22;10066;48.108;11.448;2024-02-04T08:09:59;7.80;99.90
19813;DHT22;10066;48.108;11.448;2024-02-04T08:12:26;7.80;99.90
19813;DHT22;10066;48.108;11.448;2024-02-04T08:14:53;7.80;99.90
19813;DHT22;10066;48.108;11.448;2024-02-04T08:17:20;7.80;99.90
19813;DHT22;10066;48.108;11.448;2024-02-04T08:19:47;7.80;99.90
19813;DHT22;10066;48.108;11.448;2024-02-04T08:22:14;7.80;99.90
19813;DHT22;10066;48.108;11.448;2024-02-04T08:24:44;7.80;99.90
19813;DHT22;10066;48.108;11.448;2024-02-04T08:27:12;7.90;99.90
19813;DHT22;10066;48.108;11.448;2024-02-04T08:29:41;8.00;99.90
19813;DHT22;10066;48.108;11.448;2024-02-04T08:32:08;8.10;99.90
19813;DHT22;10066;48.108;11.448;2024-02-04T08:34:35;8.20;99.90
19813;DHT22;10066;48.108;11.448;2024-02-04T08:37:02;8.30;99.90
19813;DHT22;10066;48.108;11.448;2024-02-04T08:39:29;8.40;99.90
19813;DHT22;10066;48.108;11.448;2024-02-04T08:41:58;8.40;99.90
19813;DHT22;10066;48.108;11.448;2024-02-04T08:44:25;8.50;99.90
19813;DHT22;10066;48.108;11.448;2024-02-04T08:46:52;8.60;99.90
19813;DHT22;10066;48.108;11.448;2024-02-04T08:49:21;8.70;99.90
19813;DHT22;10066;48.108;11.448;2024-02-04T08:51:48;8.70;99.90
19813;DHT22;10066;48.108;11.448;2024-02-04T08:54:15;8.80;99.90
19813;DHT22;10066;48.108;11.448;2024-02-04T08:56:43;8.80;99.90
19813;DHT22;10066;48.108;11.448;2024-02-04T08:59:12;8.80;99.90
19813;DHT22;10066;48.108;11.448;2024-02-04T09:01:39;8.90;99.90
19813;DHT22;10066;48.108;11.448;2024-02-04T09:04:06;8.90;99.90
19813;DHT22;10066;48.108;11.448;2024-02-04T09:06:33;8.90;99.90
19813;DHT22;10066;48.108;11.448;2024-02-04T09:09:00;9.00;99.90
19813;DHT22;10066;48.108;11.448;2024-02-04T09:11:27;9.00;99.90
19813;DHT22;10066;48.108;11.448;2024-02-04T09:13:54;9.10;99.90
19813;DHT22;10066;48.108;11.448;2024-02-04T09:16:23;9.20;99.90
19813;DHT22;10066;48.108;11.448;2024-02-04T09:18:50;9.10;99.90
19813;DHT22;10066;48.108;11.448;2024-02-04T09:21:17;9.20;99.90
19813;DHT22;10066;48.108;11.448;2024-02-04T09:23:44;9.20;99.90
19813;DHT22;10066;48.108;11.448;2024-02-04T09:26:11;9.30;99.90
19813;DHT22;10066;48.108;11.448;2024-02-04T09:28:38;9.30;99.90
19813;DHT22;10066;48.108;11.448;2024-02-04T09:31:08;9.30;99.90
19813;DHT22;10066;48.108;11.448;2024-02-04T09:33:36;9.40;99.90
19813;DHT22;10066;48.108;11.448;2024-02-04T09:36:06;9.50;99.90
19813;DHT22;10066;48.108;11.448;2024-02-04T09:38:33;9.60;99.90
19813;DHT22;10066;48.108;11.448;2024-02-04T09:41:01;9.60;99.90
19813;DHT22;10066;48.108;11.448;2024-02-04T09:43:30;9.70;99.90
19813;DHT22;10066;48.108;11.448;2024-02-04T09:48:25;9.80;99.90
19813;DHT22;10066;48.108;11.448;2024-02-04T09:50:58;9.80;99.90
19813;DHT22;10066;48.108;11.448;2024-02-04T09:53:32;9.80;99.90
19813;DHT22;10066;48.108;11.448;2024-02-04T09:56:01;9.90;99.90
19813;DHT22;10066;48.108;11.448;2024-02-04T09:58:28;9.90;99.90
19813;DHT22;10066;48.108;11.448;2024-02-04T10:00:55;10.00;99.90
19813;DHT22;10066;48.108;11.448;2024-02-04T10:03:23;10.00;99.90
19813;DHT22;10066;48.108;11.448;2024-02-04T10:05:50;10.00;99.90
19813;DHT22;10066;48.108;11.448;2024-02-04T10:08:19;10.00;99.90
19813;DHT22;10066;48.108;11.448;2024-02-04T10:10:47;10.00;99.90
19813;DHT22;10066;48.108;11.448;2024-02-04T10:13:14;10.00;99.90
19813;DHT22;10066;48.108;11.448;2024-02-04T10:15:41;10.10;99.90
19813;DHT22;10066;48.108;11.448;2024-02-04T10:18:08;10.00;99.90
19813;DHT22;10066;48.108;11.448;2024-02-04T10:20:36;10.00;99.90
19813;DHT22;10066;48.108;11.448;2024-02-04T10:23:04;10.00;99.90
19813;DHT22;10066;48.108;11.448;2024-02-04T10:25:32;10.10;99.90
19813;DHT22;10066;48.108;11.448;2024-02-04T10:27:59;10.10;99.90
19813;DHT22;10066;48.108;11.448;2024-02-04T10:30:26;10.10;99.90
19813;DHT22;10066;48.108;11.448;2024-02-04T10:32:54;10.20;99.90
19813;DHT22;10066;48.108;11.448;2024-02-04T10:35:21;10.10;99.90
19813;DHT22;10066;48.108;11.448;2024-02-04T10:37:48;10.10;99.90
19813;DHT22;10066;48.108;11.448;2024-02-04T10:40:15;10.20;99.90
19813;DHT22;10066;48.108;11.448;2024-02-04T10:42:45;10.10;99.90
19813;DHT22;10066;48.108;11.448;2024-02-04T10:45:12;10.10;99.90
19813;DHT22;10066;48.108;11.448;2024-02-04T10:47:54;10.10;99.90
19813;DHT22;10066;48.108;11.448;2024-02-04T10:50:23;10.10;99.90
19813;DHT22;10066;48.108;11.448;2024-02-04T10:52:51;10.20;99.90
19813;DHT22;10066;48.108;11.448;2024-02-04T10:55:21;10.20;99.90
19813;DHT22;10066;48.108;11.448;2024-02-04T10:57:52;10.30;99.90
19813;DHT22;10066;48.108;11.448;2024-02-04T11:00:20;10.40;99.90
19813;DHT22;10066;48.108;11.448;2024-02-04T11:02:47;10.50;99.90
19813;DHT22;10066;48.108;11.448;2024-02-04T11:07:43;10.80;99.90
19813;DHT22;10066;48.108;11.448;2024-02-04T11:10:11;10.80;99.90
19813;DHT22;10066;48.108;11.448;2024-02-04T11:12:40;10.90;99.90
19813;DHT22;10066;48.108;11.448;2024-02-04T11:15:13;10.90;99.90
19813;DHT22;10066;48.108;11.448;2024-02-04T11:18:07;11.00;99.90
19813;DHT22;10066;48.108;11.448;2024-02-04T11:21:00;11.10;99.90
19813;DHT22;10066;48.108;11.448;2024-02-04T11:23:41;11.00;99.90
19813;DHT22;10066;48.108;11.448;2024-02-04T11:26:10;11.10;99.90
19813;DHT22;10066;48.108;11.448;2024-02-04T11:28:37;11.10;99.90
19813;DHT22;10066;48.108;11.448;2024-02-04T11:31:13;11.20;99.90
19813;DHT22;10066;48.108;11.448;2024-02-04T11:33:41;11.20;99.90
19813;DHT22;10066;48.108;11.448;2024-02-04T11:36:12;11.20;99.90
19813;DHT22;10066;48.108;11.448;2024-02-04T11:38:40;11.10;99.90
19813;DHT22;10066;48.108;11.448;2024-02-04T11:41:08;11.10;99.90
19813;DHT22;10066;48.108;11.448;2024-02-04T11:43:36;11.00;99.90
19813;DHT22;10066;48.108;11.448;2024-02-04T11:46:06;11.10;99.90
19813;DHT22;10066;48.108;11.448;2024-02-04T11:48:34;11.10;99.90
19813;DHT22;10066;48.108;11.448;2024-02-04T11:51:04;11.20;99.90
19813;DHT22;10066;48.108;11.448;2024-02-04T11:53:31;11.20;99.90
19813;DHT22;10066;48.108;11.448;2024-02-04T11:56:00;11.30;99.90
19813;DHT22;10066;48.108;11.448;2024-02-04T11:58:29;11.20;99.90
19813;DHT22;10066;48.108;11.448;2024-02-04T12:00:57;11.20;99.90
19813;DHT22;10066;48.108;11.448;2024-02-04T12:03:32;11.30;99.90
19813;DHT22;10066;48.108;11.448;2024-02-04T12:06:00;11.30;99.90
19813;DHT22;10066;48.108;11.448;2024-02-04T12:08:28;11.40;99.90
19813;DHT22;10066;48.108;11.448;2024-02-04T12:10:55;11.40;99.90
19813;DHT22;10066;48.108;11.448;2024-02-04T12:13:24;11.50;99.90
19813;DHT22;10066;48.108;11.448;2024-02-04T12:15:51;11.50;99.90
19813;DHT22;10066;48.108;11.448;2024-02-04T12:18:18;11.60;99.90
19813;DHT22;10066;48.108;11.448;2024-02-04T12:20:48;11.60;99.90
19813;DHT22;10066;48.108;11.448;2024-02-04T12:23:17;11.60;99.90
19813;DHT22;10066;48.108;11.448;2024-02-04T12:25:44;11.60;99.90
19813;DHT22;10066;48.108;11.448;2024-02-04T12:28:23;11.60;99.90
19813;DHT22;10066;48.108;11.448;2024-02-04T12:30:53;11.60;99.90
19813;DHT22;10066;48.108;11.448;2024-02-04T12:33:20;11.70;99.90
19813;DHT22;10066;48.108;11.448;2024-02-04T12:35:49;11.70;99.90
19813;DHT22;10066;48.108;11.448;2024-02-04T12:38:17;11.70;99.90
19813;DHT22;10066;48.108;11.448;2024-02-04T12:40:44;11.60;99.90
19813;DHT22;10066;48.108;11.448;2024-02-04T12:43:11;11.60;99.90
19813;DHT22;10066;48.108;11.448;2024-02-04T12:45:40;11.50;99.90
19813;DHT22;10066;48.108;11.448;2024-02-04T12:48:09;11.50;99.90
19813;DHT22;10066;48.108;11.448;2024-02-04T12:50:37;11.50;99.90
19813;DHT22;10066;48.108;11.448;2024-02-04T12:53:05;11.50;99.90
19813;DHT22;10066;48.108;11.448;2024-02-04T12:55:34;11.50;99.90
19813;DHT22;10066;48.108;11.448;2024-02-04T12:58:02;11.60;99.90
19813;DHT22;10066;48.108;11.448;2024-02-04T13:00:30;11.70;99.90
19813;DHT22;10066;48.108;11.448;2024-02-04T13:02:59;11.80;99.90
19813;DHT22;10066;48.108;11.448;2024-02-04T13:05:26;11.80;99.90
19813;DHT22;10066;48.108;11.448;2024-02-04T13:07:57;11.80;99.90
19813;DHT22;10066;48.108;11.448;2024-02-04T13:10:28;11.90;99.90
19813;DHT22;10066;48.108;11.448;2024-02-04T13:13:00;11.90;99.90
19813;DHT22;10066;48.108;11.448;2024-02-04T13:15:28;12.00;99.90
19813;DHT22;10066;48.108;11.448;2024-02-04T13:17:55;12.00;99.90
19813;DHT22;10066;48.108;11.448;2024-02-04T13:20:24;12.10;99.90
19813;DHT22;10066;48.108;11.448;2024-02-04T13:22:51;12.10;99.90
19813;DHT22;10066;48.108;11.448;2024-02-04T13:25:19;12.10;99.90
19813;DHT22;10066;48.108;11.448;2024-02-04T13:27:47;12.10;99.90
19813;DHT22;10066;48.108;11.448;2024-02-04T13:30:15;12.10;99.80
19813;DHT22;10066;48.108;11.448;2024-02-04T13:32:42;12.10;99.90
19813;DHT22;10066;48.108;11.448;2024-02-04T13:35:10;12.10;99.90
19813;DHT22;10066;48.108;11.448;2024-02-04T13:37:39;12.10;99.90
19813;DHT22;10066;48.108;11.448;2024-02-04T13:40:08;12.20;99.90
19813;DHT22;10066;48.108;11.448;2024-02-04T13:42:35;12.10;99.70
19813;DHT22;10066;48.108;11.448;2024-02-04T13:45:03;12.10;99.70
19813;DHT22;10066;48.108;11.448;2024-02-04T13:47:30;12.10;99.70
19813;DHT22;10066;48.108;11.448;2024-02-04T13:49:57;12.10;99.50
19813;DHT22;10066;48.108;11.448;2024-02-04T13:52:24;12.00;99.60
19813;DHT22;10066;48.108;11.448;2024-02-04T13:54:53;12.00;99.80
19813;DHT22;10066;48.108;11.448;2024-02-04T13:57:20;12.00;99.70
19813;DHT22;10066;48.108;11.448;2024-02-04T13:59:48;12.00;99.70
19813;DHT22;10066;48.108;11.448;2024-02-04T14:02:16;12.00;99.90
19813;DHT22;10066;48.108;11.448;2024-02-04T14:04:43;12.00;99.90
19813;DHT22;10066;48.108;11.448;2024-02-04T14:07:10;12.00;99.90
19813;DHT22;10066;48.108;11.448;2024-02-04T14:09:37;11.90;99.90
19813;DHT22;10066;48.108;11.448;2024-02-04T14:12:06;11.80;99.90
19813;DHT22;10066;48.108;11.448;2024-02-04T14:14:34;11.80;99.90
19813;DHT22;10066;48.108;11.448;2024-02-04T14:17:01;11.80;99.90
19813;DHT22;10066;48.108;11.448;2024-02-04T14:19:28;11.80;99.90
19813;DHT22;10066;48.108;11.448;2024-02-04T14:21:55;11.80;99.90
19813;DHT22;10066;48.108;11.448;2024-02-04T14:24:22;11.70;99.90
19813;DHT22;10066;48.108;11.448;2024-02-04T14:26:55;11.70;99.90
19813;DHT22;10066;48.108;11.448;2024-02-04T14:29:24;11.70;99.90
19813;DHT22;10066;48.108;11.448;2024-02-04T14:31:51;11.70;99.90
19813;DHT22;10066;48.108;11.448;2024-02-04T14:34:18;11.70;99.90
19813;DHT22;10066;48.108;11.448;2024-02-04T14:36:46;11.70;99.90
19813;DHT22;10066;48.108;11.448;2024-02-04T14:39:13;11.60;99.90
19813;DHT22;10066;48.108;11.448;2024-02-04T14:41:40;11.60;99.90
19813;DHT22;10066;48.108;11.448;2024-02-04T14:44:07;11.60;99.90
19813;DHT22;10066;48.108;11.448;2024-02-04T14:46:37;11.60;99.90
19813;DHT22;10066;48.108;11.448;2024-02-04T14:49:04;11.70;99.90
19813;DHT22;10066;48.108;11.448;2024-02-04T14:51:32;11.70;99.90
19813;DHT22;10066;48.108;11.448;2024-02-04T14:53:59;11.70;99.90
19813;DHT22;10066;48.108;11.448;2024-02-04T14:56:26;11.70;99.90
19813;DHT22;10066;48.108;11.448;2024-02-04T14:58:52;11.60;99.90
19813;DHT22;10066;48.108;11.448;2024-02-04T15:01:20;11.70;99.90
19813;DHT22;10066;48.108;11.448;2024-02-04T15:03:48;11.70;99.90
19813;DHT22;10066;48.108;11.448;2024-02-04T15:06:16;11.70;99.90
19813;DHT22;10066;48.108;11.448;2024-02-04T15:08:43;11.70;99.90
19813;DHT22;10066;48.108;11.448;2024-02-04T15:11:10;11.70;99.90
19813;DHT22;10066;48.108;11.448;2024-02-04T15:13:38;11.70;99.90
19813;DHT22;10066;48.108;11.448;2024-02-04T15:16:06;11.70;99.90
19813;DHT22;10066;48.108;11.448;2024-02-04T15:18:34;11.70;99.90
19813;DHT22;10066;48.108;11.448;2024-02-04T15:21:03;11.70;99.90
19813;DHT22;10066;48.108;11.448;2024-02-04T15:23:31;11.60;99.90
19813;DHT22;10066;48.108;11.448;2024-02-04T15:25:59;11.60;99.90
19813;DHT22;10066;48.108;11.448;2024-02-04T15:28:26;11.60;99.90
19813;DHT22;10066;48.108;11.448;2024-02-04T15:30:54;11.60;99.90
19813;DHT22;10066;48.108;11.448;2024-02-04T15:33:23;11.60;99.90
19813;DHT22;10066;48.108;11.448;2024-02-04T15:35:50;11.60;99.90